Time;durP1;ratioP1;P1;durP2;ratioP2;P2;SDS_P1;SDS_P2;PMS_P1;PMS_P2;Temp;Humidity;BMP_temperature;BMP_pressure;BME280_temperature;BME280_humidity;BME280_pressure;Samples;Min_cycle;Max_cycle;Signal;HPM_P1;HPM_P2
2022/05/22 00:02:11;;;;;;;4.30;2.28;;;21.60;96.70;;;;;;5057057;28;20580;-77
2022/05/22 00:04:39;;;;;;;3.58;2.35;;;21.60;96.70;;;;;;5050296;28;20040;-77
2022/05/22 00:07:07;;;;;;;6.60;1.95;;;21.60;96.70;;;;;;5036169;28;20041;-76
2022/05/22 00:09:39;;;;;;;3.95;2.40;;;21.50;96.70;;;;;;5055242;28;20068;-77
2022/05/22 00:12:10;;;;;;;7.25;2.70;;;21.50;96.70;;;;;;5058389;28;20064;-77
2022/05/22 00:14:39;;;;;;;6.05;2.40;;;21.50;96.70;;;;;;5051842;28;20045;-77
2022/05/22 00:17:08;;;;;;;7.40;2.70;;;21.40;96.70;;;;;;5053509;28;20049;-77
2022/05/22 00:19:37;;;;;;;4.35;2.17;;;21.50;96.70;;;;;;5050151;28;20045;-77
2022/05/22 00:22:06;;;;;;;8.60;2.63;;;21.60;96.70;;;;;;5036355;28;20049;-77
2022/05/22 00:24:34;;;;;;;5.45;2.10;;;21.60;96.70;;;;;;5041457;28;20586;-77
2022/05/22 00:27:03;;;;;;;5.25;2.58;;;21.70;96.70;;;;;;5048694;28;20152;-77
2022/05/22 00:29:36;;;;;;;6.63;2.60;;;21.70;96.70;;;;;;5055198;28;20064;-77
2022/05/22 00:32:10;;;;;;;5.47;2.70;;;21.70;96.70;;;;;;5053891;28;20045;-77
2022/05/22 00:34:39;;;;;;;4.55;2.10;;;21.70;96.70;;;;;;5049117;28;20667;-77
2022/05/22 00:37:07;;;;;;;5.88;2.40;;;21.80;96.70;;;;;;5037427;28;20765;-77
2022/05/22 00:39:36;;;;;;;6.55;2.40;;;21.70;96.70;;;;;;5055268;28;20051;-77
2022/05/22 00:42:14;;;;;;;5.15;2.67;;;21.60;96.70;;;;;;5055867;28;20119;-77
2022/05/22 00:44:44;;;;;;;5.75;2.53;;;21.70;96.70;;;;;;5030013;28;20045;-77
2022/05/22 00:47:12;;;;;;;8.73;2.97;;;21.70;96.70;;;;;;5056303;28;20663;-77
2022/05/22 00:49:43;;;;;;;4.93;2.85;;;21.50;96.70;;;;;;5055898;28;20048;-77
2022/05/22 00:52:14;;;;;;;4.90;2.83;;;21.40;96.70;;;;;;5054470;28;20044;-77
2022/05/22 00:54:47;;;;;;;4.75;2.13;;;21.50;96.70;;;;;;5035281;28;20063;-77
2022/05/22 00:57:19;;;;;;;4.53;2.10;;;21.50;96.70;;;;;;5038806;28;20052;-77
2022/05/22 00:59:52;;;;;;;4.85;2.35;;;21.40;96.70;;;;;;5048998;28;20762;-77
2022/05/22 01:02:22;;;;;;;7.13;2.85;;;21.40;96.70;;;;;;5036838;28;20060;-76
2022/05/22 01:04:51;;;;;;;5.60;2.50;;;21.20;96.70;;;;;;5053796;28;20053;-76
2022/05/22 01:07:19;;;;;;;5.20;2.40;;;21.30;96.70;;;;;;5051750;28;20044;-77
2022/05/22 01:09:48;;;;;;;6.22;3.15;;;21.40;96.70;;;;;;5052787;28;20398;-77
2022/05/22 01:12:20;;;;;;;7.95;2.50;;;21.40;96.70;;;;;;5034518;28;20458;-77
2022/05/22 01:14:54;;;;;;;3.88;1.92;;;21.60;96.70;;;;;;5038337;28;20056;-77
2022/05/22 01:17:22;;;;;;;4.75;2.38;;;21.60;96.70;;;;;;5058404;28;20060;-77
2022/05/22 01:19:58;;;;;;;5.97;2.65;;;21.40;96.70;;;;;;5040878;28;20143;-76
2022/05/22 01:22:28;;;;;;;5.03;2.38;;;21.40;96.70;;;;;;5051386;28;20052;-76
2022/05/22 01:24:57;;;;;;;5.57;2.53;;;21.40;96.70;;;;;;5054364;28;20071;-77
2022/05/22 01:27:26;;;;;;;6.15;2.58;;;21.40;96.70;;;;;;5053634;28;20738;-77
2022/05/22 01:30:12;;;;;;;7.22;2.60;;;21.50;96.70;;;;;;5052028;28;20053;-77
2022/05/22 01:32:43;;;;;;;4.57;2.40;;;21.50;96.70;;;;;;5052731;28;20513;-77
2022/05/22 01:35:15;;;;;;;5.22;2.33;;;21.50;96.70;;;;;;5058524;28;20786;-77
2022/05/22 01:37:46;;;;;;;6.70;2.63;;;21.60;96.70;;;;;;5055398;28;20056;-77
2022/05/22 01:40:16;;;;;;;4.50;2.20;;;21.60;96.70;;;;;;5056889;28;20053;-77
2022/05/22 01:42:48;;;;;;;5.45;2.30;;;21.50;96.70;;;;;;5045278;28;20683;-76
2022/05/22 01:45:19;;;;;;;7.40;2.33;;;21.50;96.70;;;;;;5052932;28;20056;-76
2022/05/22 01:47:47;;;;;;;4.88;2.58;;;21.50;96.70;;;;;;5042225;28;20155;-77
2022/05/22 01:50:16;;;;;;;7.03;2.28;;;21.40;96.70;;;;;;5055896;28;20056;-77
2022/05/22 01:52:46;;;;;;;3.90;2.03;;;21.30;96.70;;;;;;5060745;28;20051;-77
2022/05/22 01:55:16;;;;;;;7.55;2.80;;;21.30;96.70;;;;;;5048826;28;20041;-76
2022/05/22 01:57:47;;;;;;;5.30;2.30;;;21.20;96.70;;;;;;5061425;28;20060;-76
2022/05/22 02:00:19;;;;;;;6.80;2.42;;;21.20;96.70;;;;;;5052855;28;20444;-76
2022/05/22 02:02:55;;;;;;;3.75;2.22;;;21.10;96.70;;;;;;5034932;28;20140;-77
2022/05/22 02:05:32;;;;;;;5.60;2.67;;;21.20;96.70;;;;;;5054227;28;20036;-77
2022/05/22 02:10:57;;;;;;;4.45;2.60;;;20.90;96.70;;;;;;5056819;28;20036;-76
2022/05/22 02:13:28;;;;;;;6.78;2.67;;;20.70;96.70;;;;;;5043266;28;20473;-77
2022/05/22 02:15:56;;;;;;;6.32;2.90;;;20.80;96.70;;;;;;5051737;28;20048;-76
2022/05/22 02:18:28;;;;;;;6.35;2.63;;;20.90;96.70;;;;;;5051460;28;20051;-76
2022/05/22 02:20:56;;;;;;;5.35;2.50;;;20.80;96.70;;;;;;5052968;28;20972;-76
2022/05/22 02:23:25;;;;;;;4.07;2.72;;;20.70;96.70;;;;;;5057257;28;20044;-76
2022/05/22 02:25:55;;;;;;;4.85;2.20;;;20.60;96.70;;;;;;5055449;28;20084;-77
2022/05/22 02:28:25;;;;;;;4.70;2.33;;;20.70;96.70;;;;;;5050419;28;20044;-76
2022/05/22 02:30:56;;;;;;;7.32;2.30;;;20.70;96.70;;;;;;5039363;28;20052;-77
2022/05/22 02:33:25;;;;;;;5.93;2.35;;;20.60;96.70;;;;;;5051863;28;20056;-76
2022/05/22 02:36:00;;;;;;;6.72;2.83;;;20.70;96.70;;;;;;5051785;28;20052;-77
2022/05/22 02:38:37;;;;;;;4.18;2.30;;;20.70;96.70;;;;;;5051875;28;20514;-77
2022/05/22 02:41:10;;;;;;;4.25;2.30;;;20.60;96.70;;;;;;5071295;28;20069;-77
2022/05/22 02:43:40;;;;;;;6.22;2.70;;;20.60;96.70;;;;;;5059401;28;20414;-76
2022/05/22 02:46:11;;;;;;;4.18;2.38;;;20.70;96.70;;;;;;5058899;28;20044;-77
2022/05/22 02:48:40;;;;;;;5.80;2.60;;;20.60;96.70;;;;;;5053107;28;20062;-76
2022/05/22 02:51:11;;;;;;;3.83;2.35;;;20.50;96.70;;;;;;5055724;28;20041;-77
2022/05/22 02:53:41;;;;;;;6.85;2.47;;;20.50;96.70;;;;;;5056388;28;20048;-77
2022/05/22 02:56:20;;;;;;;5.40;2.72;;;20.60;96.70;;;;;;5054302;28;20075;-77
2022/05/22 02:59:23;;;;;;;4.22;2.50;;;20.60;96.70;;;;;;5039007;28;20056;-76
2022/05/22 03:02:11;;;;;;;5.32;2.53;;;20.50;96.70;;;;;;5051680;28;20626;-76
2022/05/22 03:04:40;;;;;;;4.55;2.60;;;20.60;96.70;;;;;;5052898;28;20041;-77
2022/05/22 03:07:11;;;;;;;5.72;2.70;;;20.70;96.70;;;;;;5052232;28;20040;-78
2022/05/22 03:09:44;;;;;;;7.22;2.22;;;20.70;96.70;;;;;;5051400;28;20139;-77
2022/05/22 03:12:15;;;;;;;6.78;2.88;;;20.60;96.70;;;;;;5035243;28;20064;-78
2022/05/22 03:14:47;;;;;;;6.60;2.70;;;20.60;96.70;;;;;;5041743;28;20144;-78
2022/05/22 03:17:16;;;;;;;4.55;2.40;;;20.50;96.70;;;;;;5054477;28;20045;-78
2022/05/22 03:19:55;;;;;;;5.28;2.28;;;20.60;96.70;;;;;;5049719;28;20495;-78
2022/05/22 03:22:23;;;;;;;4.63;2.45;;;20.60;96.70;;;;;;5052930;28;20159;-77
2022/05/22 03:24:53;;;;;;;6.28;2.58;;;20.60;96.70;;;;;;5042359;28;20045;-77
2022/05/22 03:27:21;;;;;;;4.97;2.80;;;20.70;96.70;;;;;;5048873;28;20758;-77
2022/05/22 03:29:53;;;;;;;3.42;2.28;;;20.70;96.70;;;;;;5050379;28;20548;-77
2022/05/22 03:32:22;;;;;;;5.75;2.60;;;20.70;96.70;;;;;;5056240;28;20048;-78
2022/05/22 03:34:56;;;;;;;3.75;2.40;;;20.70;96.70;;;;;;5052538;28;20163;-77
2022/05/22 03:37:24;;;;;;;6.53;2.47;;;20.60;96.70;;;;;;5051448;28;20044;-78
2022/05/22 03:39:58;;;;;;;3.00;1.90;;;20.70;96.70;;;;;;5031781;28;20044;-77
2022/05/22 03:42:27;;;;;;;3.80;2.40;;;20.60;96.70;;;;;;5038500;28;20059;-77
2022/05/22 03:44:55;;;;;;;5.97;2.20;;;20.60;96.70;;;;;;5035672;28;20458;-77
2022/05/22 03:47:23;;;;;;;5.93;2.65;;;20.60;96.70;;;;;;5057425;28;20139;-78
2022/05/22 03:50:04;;;;;;;4.57;1.92;;;20.60;96.70;;;;;;5052894;28;20045;-78
2022/05/22 03:52:34;;;;;;;3.33;2.20;;;20.60;96.70;;;;;;5055868;28;20909;-77
2022/05/22 03:55:08;;;;;;;4.30;2.33;;;20.60;96.70;;;;;;5052276;28;20071;-78
2022/05/22 03:57:36;;;;;;;6.75;2.95;;;20.50;96.70;;;;;;5054103;28;20067;-78
2022/05/22 04:00:08;;;;;;;5.85;2.22;;;20.30;96.70;;;;;;5048685;28;20045;-78
2022/05/22 04:02:41;;;;;;;;;;;20.30;96.70;;;;;;5054497;28;20049;-76
2022/05/22 04:05:12;;;;;;;6.32;2.63;;;20.40;96.70;;;;;;5055003;28;19986;-77
2022/05/22 04:07:42;;;;;;;6.75;2.25;;;20.40;96.70;;;;;;5053722;28;20067;-77
2022/05/22 04:10:14;;;;;;;5.57;2.47;;;20.50;96.70;;;;;;5053840;28;20059;-77
2022/05/22 04:12:43;;;;;;;6.35;2.50;;;20.50;96.70;;;;;;5055458;28;20494;-78
2022/05/22 04:15:13;;;;;;;7.38;2.63;;;20.50;96.70;;;;;;5041261;28;20048;-77
2022/05/22 04:17:42;;;;;;;6.07;2.60;;;20.50;96.70;;;;;;5042534;28;20048;-79
2022/05/22 04:20:19;;;;;;;11.70;3.67;;;20.50;96.70;;;;;;5054840;28;20044;-78
2022/05/22 04:25:35;;;;;;;4.63;2.95;;;20.20;96.70;;;;;;5049188;28;20041;-77
2022/05/22 04:28:04;;;;;;;7.40;2.70;;;20.20;96.70;;;;;;5052111;28;20048;-78
2022/05/22 04:30:32;;;;;;;5.57;2.97;;;20.20;96.70;;;;;;5051503;28;20052;-78
2022/05/22 04:33:06;;;;;;;5.45;3.08;;;20.20;96.70;;;;;;5049774;28;20248;-78
2022/05/22 04:35:35;;;;;;;6.97;2.85;;;20.30;96.70;;;;;;5038375;28;20134;-77
2022/05/22 04:38:04;;;;;;;4.90;3.05;;;20.20;96.70;;;;;;5037259;28;20490;-77
2022/05/22 04:40:35;;;;;;;6.47;2.92;;;20.30;96.70;;;;;;5052652;28;20054;-77
2022/05/22 04:43:04;;;;;;;4.30;2.78;;;20.40;96.70;;;;;;5053501;28;20048;-77
2022/05/22 04:45:33;;;;;;;4.32;2.38;;;20.20;96.70;;;;;;5037091;28;20032;-77
2022/05/22 04:48:07;;;;;;;5.53;2.75;;;20.20;96.70;;;;;;5033049;28;20075;-78
2022/05/22 04:50:46;;;;;;;5.25;2.65;;;20.40;96.70;;;;;;5052952;28;20069;-78
2022/05/22 04:53:32;;;;;;;5.47;2.77;;;20.40;96.70;;;;;;5055463;28;20048;-77
2022/05/22 04:56:05;;;;;;;4.22;2.53;;;20.40;96.70;;;;;;5055338;28;20060;-78
2022/05/22 04:58:41;;;;;;;4.22;2.55;;;20.40;96.70;;;;;;5050929;28;20703;-77
2022/05/22 05:01:12;;;;;;;6.45;2.80;;;20.50;96.70;;;;;;5052601;28;20052;-76
2022/05/22 05:03:50;;;;;;;5.60;2.65;;;20.50;96.70;;;;;;5050807;28;20517;-78
2022/05/22 05:06:19;;;;;;;3.63;2.60;;;20.60;96.70;;;;;;5046540;28;20055;-77
2022/05/22 05:08:51;;;;;;;5.97;3.15;;;20.60;96.70;;;;;;5036881;28;20099;-78
2022/05/22 05:11:33;;;;;;;6.35;2.78;;;20.60;96.70;;;;;;5049679;28;20498;-76
2022/05/22 05:14:07;;;;;;;5.63;3.20;;;20.60;96.70;;;;;;5051581;28;20705;-77
2022/05/22 05:16:35;;;;;;;4.50;2.58;;;20.60;96.70;;;;;;5048620;28;20077;-77
2022/05/22 05:19:08;;;;;;;4.95;2.85;;;20.50;96.70;;;;;;5050352;28;20133;-77
2022/05/22 05:21:40;;;;;;;7.00;3.08;;;20.40;96.70;;;;;;5046941;28;20169;-77
2022/05/22 05:24:10;;;;;;;6.95;2.92;;;20.40;96.70;;;;;;5053810;28;20139;-78
2022/05/22 05:26:40;;;;;;;4.63;3.25;;;20.30;96.70;;;;;;5050525;28;20064;-77
2022/05/22 05:29:18;;;;;;;5.80;3.00;;;20.30;96.70;;;;;;5054398;28;20044;-77
2022/05/22 05:31:46;;;;;;;3.95;2.33;;;20.30;96.70;;;;;;5033403;28;20093;-77
2022/05/22 05:34:16;;;;;;;7.30;3.05;;;20.30;96.70;;;;;;5040959;28;20854;-77
2022/05/22 05:37:09;;;;;;;7.10;3.53;;;20.40;96.70;;;;;;5048849;28;20421;-75
2022/05/22 05:39:54;;;;;;;9.50;3.50;;;20.50;96.70;;;;;;5047524;28;20153;-75
2022/05/22 05:42:33;;;;;;;5.23;2.83;;;20.40;96.70;;;;;;5052161;28;20440;-74
2022/05/22 05:45:05;;;;;;;4.18;3.00;;;20.30;96.70;;;;;;5050651;28;20780;-75
2022/05/22 05:47:47;;;;;;;5.72;3.10;;;20.50;96.70;;;;;;5046016;28;20553;-77
2022/05/22 05:50:42;;;;;;;7.03;2.80;;;20.50;96.70;;;;;;5050181;28;20045;-76
2022/05/22 05:53:29;;;;;;;6.45;2.95;;;20.50;96.70;;;;;;5051111;28;20073;-76
2022/05/22 05:56:20;;;;;;;7.57;3.10;;;20.60;96.70;;;;;;5050820;28;20056;-77
2022/05/22 05:59:10;;;;;;;7.65;3.08;;;20.60;96.70;;;;;;5034559;28;20518;-77
2022/05/22 06:01:46;;;;;;;9.10;3.55;;;20.70;96.70;;;;;;5034274;28;20502;-77
2022/05/22 06:04:15;;;;;;;7.25;3.20;;;20.80;96.70;;;;;;5057139;28;20045;-76
2022/05/22 06:06:44;;;;;;;5.68;3.08;;;21.00;96.70;;;;;;5041034;28;20056;-76
2022/05/22 06:09:15;;;;;;;8.00;2.92;;;21.10;96.70;;;;;;5035768;28;20087;-76
2022/05/22 06:11:46;;;;;;;6.25;2.72;;;21.10;96.70;;;;;;5050662;28;20760;-77
2022/05/22 06:14:23;;;;;;;7.03;2.75;;;21.20;96.70;;;;;;5036844;28;20477;-77
2022/05/22 06:16:52;;;;;;;5.88;2.80;;;21.20;96.70;;;;;;5055650;28;20075;-76
2022/05/22 06:19:54;;;;;;;5.57;3.00;;;21.20;96.70;;;;;;5053611;28;20044;-76
2022/05/22 06:22:15;;;;;;;7.05;2.90;;;21.30;96.70;;;;;;5057010;28;20053;-76
2022/05/22 06:24:45;;;;;;;5.53;3.10;;;21.30;96.70;;;;;;5054621;28;20062;-77
2022/05/22 06:27:32;;;;;;;6.75;3.38;;;21.30;96.70;;;;;;5057101;28;20535;-76
2022/05/22 06:30:18;;;;;;;6.43;3.10;;;21.20;96.70;;;;;;5055148;28;20099;-76
2022/05/22 06:33:17;;;;;;;8.05;3.00;;;21.30;96.70;;;;;;5050838;28;20056;-75
2022/05/22 06:36:20;;;;;;;7.22;2.95;;;21.30;96.70;;;;;;5015085;28;20060;-77
2022/05/22 06:42:12;;;;;;;6.32;3.35;;;21.40;96.70;;;;;;5051630;28;20048;-77
2022/05/22 06:45:16;;;;;;;7.85;3.92;;;21.40;96.70;;;;;;5025055;28;20052;-76
2022/05/22 06:48:10;;;;;;;6.47;3.33;;;21.20;96.70;;;;;;5004897;28;20155;-76
2022/05/22 06:51:17;;;;;;;8.43;3.78;;;21.30;96.70;;;;;;4963151;28;20055;-76
2022/05/22 06:53:57;;;;;;;10.23;4.15;;;21.40;96.70;;;;;;4960443;28;20078;-76
2022/05/22 06:56:52;;;;;;;7.32;3.65;;;21.40;96.70;;;;;;4954129;28;20238;-75
2022/05/22 06:59:52;;;;;;;;;;;21.40;96.70;;;;;;4937899;28;20097;-75
2022/05/22 07:03:00;;;;;;;;;;;21.60;96.70;;;;;;4924760;29;20294;-76
2022/05/22 07:05:51;;;;;;;7.80;3.40;;;21.60;96.70;;;;;;4919640;29;20536;-76
2022/05/22 07:08:54;;;;;;;9.02;3.92;;;21.70;96.70;;;;;;4941820;29;20051;-75
2022/05/22 07:11:45;;;;;;;6.38;2.83;;;21.90;96.70;;;;;;4924168;29;20040;-77
2022/05/22 07:14:37;;;;;;;6.78;3.40;;;21.90;96.70;;;;;;4922801;29;20066;-75
2022/05/22 07:17:10;;;;;;;6.40;3.83;;;21.90;96.70;;;;;;4923498;29;20059;-76
2022/05/22 07:19:45;;;;;;;8.23;3.97;;;22.00;96.70;;;;;;4907860;29;20652;-75
2022/05/22 07:22:31;;;;;;;5.65;3.65;;;22.00;96.70;;;;;;4965537;28;21100;-76
2022/05/22 07:25:19;;;;;;;6.75;3.53;;;22.00;96.70;;;;;;4990474;28;20531;-75
2022/05/22 07:28:01;;;;;;;9.70;3.60;;;22.00;96.70;;;;;;4976505;28;20427;-75
2022/05/22 07:30:44;;;;;;;5.57;3.33;;;22.20;96.70;;;;;;4998358;28;20482;-77
2022/05/22 07:33:44;;;;;;;7.53;3.50;;;22.20;96.70;;;;;;5013321;28;20068;-77
2022/05/22 07:36:36;;;;;;;7.07;3.17;;;22.30;96.70;;;;;;5044055;28;20045;-78
2022/05/22 07:39:38;;;;;;;6.03;3.35;;;22.30;96.70;;;;;;5053230;28;20053;-77
2022/05/22 07:42:38;;;;;;;9.98;4.57;;;22.40;96.70;;;;;;5035100;28;20141;-77
2022/05/22 07:45:28;;;;;;;5.45;3.03;;;22.50;96.70;;;;;;5053666;28;20048;-80
2022/05/22 07:48:02;;;;;;;6.38;3.15;;;22.50;96.70;;;;;;5049887;28;20048;-80
2022/05/22 07:50:37;;;;;;;7.75;4.00;;;22.60;96.70;;;;;;5036705;28;20414;-79
2022/05/22 07:53:38;;;;;;;8.15;4.60;;;22.70;96.70;;;;;;5041835;28;20105;-80
2022/05/22 07:56:44;;;;;;;;;;;22.90;96.70;;;;;;5035771;28;20127;-79
2022/05/22 07:59:40;;;;;;;7.38;3.40;;;23.00;96.70;;;;;;4961720;28;19930;-78
2022/05/22 08:02:41;;;;;;;8.13;4.43;;;23.00;96.70;;;;;;4949823;28;20055;-79
2022/05/22 08:05:15;;;;;;;5.53;3.67;;;22.90;96.70;;;;;;4947615;28;20046;-79
2022/05/22 08:07:45;;;;;;;7.13;3.75;;;22.90;96.70;;;;;;4964540;28;20043;-78
2022/05/22 08:10:38;;;;;;;5.93;3.00;;;22.90;96.70;;;;;;4956176;28;20090;-78
2022/05/22 08:13:13;;;;;;;6.97;3.63;;;23.10;96.70;;;;;;4961689;28;20508;-80
2022/05/22 08:15:42;;;;;;;6.68;3.60;;;23.20;96.70;;;;;;4961130;28;20441;-76
2022/05/22 08:18:23;;;;;;;8.07;3.30;;;23.30;96.70;;;;;;4933251;28;20059;-77
2022/05/22 08:20:53;;;;;;;8.88;3.63;;;23.20;96.70;;;;;;4942612;28;20047;-75
2022/05/22 08:23:23;;;;;;;8.05;3.90;;;23.10;96.70;;;;;;4960925;28;20161;-76
2022/05/22 08:26:01;;;;;;;5.65;2.88;;;23.20;96.70;;;;;;4959958;28;20187;-75
2022/05/22 08:28:31;;;;;;;7.32;3.20;;;23.40;96.70;;;;;;4977563;28;20116;-77
2022/05/22 08:31:00;;;;;;;5.50;3.33;;;23.60;96.70;;;;;;4979877;28;20136;-78
2022/05/22 08:33:30;;;;;;;7.07;3.65;;;23.60;96.70;;;;;;4980532;28;20035;-78
2022/05/22 08:35:59;;;;;;;6.38;3.22;;;23.50;96.70;;;;;;4995722;28;20098;-79
2022/05/22 08:38:27;;;;;;;7.43;3.13;;;23.50;96.70;;;;;;5048581;28;20079;-79
2022/05/22 08:41:02;;;;;;;7.07;3.47;;;23.60;96.70;;;;;;5053909;28;20044;-78
2022/05/22 08:43:35;;;;;;;6.75;3.28;;;23.60;96.70;;;;;;5052815;28;20458;-79
2022/05/22 08:46:08;;;;;;;5.65;3.08;;;23.70;96.70;;;;;;5057001;28;20246;-77
2022/05/22 08:48:42;;;;;;;7.13;3.35;;;23.70;96.70;;;;;;5050263;28;20537;-78
2022/05/22 08:51:16;;;;;;;5.13;3.00;;;23.80;96.70;;;;;;5040490;28;20517;-79
2022/05/22 08:53:48;;;;;;;6.10;2.92;;;23.80;96.70;;;;;;5050799;28;20147;-79
2022/05/22 08:59:20;;;;;;;5.03;3.05;;;23.90;96.70;;;;;;5047194;28;20056;-79
2022/05/22 09:01:54;;;;;;;6.10;3.15;;;24.00;96.70;;;;;;5053511;28;20580;-78
2022/05/22 09:04:32;;;;;;;8.63;2.83;;;24.30;96.70;;;;;;5056601;28;20583;-77
2022/05/22 09:07:17;;;;;;;6.78;3.05;;;24.50;96.70;;;;;;5055089;28;20045;-81
2022/05/22 09:09:50;;;;;;;5.53;3.15;;;24.50;96.70;;;;;;5049396;28;20068;-78
2022/05/22 09:12:45;;;;;;;4.93;3.00;;;24.70;96.70;;;;;;5057764;28;20067;-79
2022/05/22 09:15:17;;;;;;;5.45;2.72;;;24.80;96.70;;;;;;5046952;28;20063;-78
2022/05/22 09:17:52;;;;;;;10.65;3.22;;;24.80;96.70;;;;;;5048348;28;20041;-80
2022/05/22 09:20:24;;;;;;;7.70;3.45;;;24.90;96.70;;;;;;5046958;28;20536;-80
2022/05/22 09:23:06;;;;;;;4.72;2.70;;;24.90;96.70;;;;;;5048163;28;20718;-80
2022/05/22 09:25:47;;;;;;;7.45;3.33;;;24.90;96.70;;;;;;5051704;28;20914;-79
2022/05/22 09:28:23;;;;;;;7.95;3.20;;;25.00;96.70;;;;;;5049224;28;20045;-81
2022/05/22 09:31:04;;;;;;;6.35;2.97;;;25.00;96.70;;;;;;5054072;28;20452;-80
2022/05/22 09:33:42;;;;;;;6.43;3.13;;;25.10;96.70;;;;;;5050189;28;20045;-83
2022/05/22 09:36:25;;;;;;;4.68;3.10;;;25.10;96.70;;;;;;5033389;28;20091;-78
2022/05/22 09:39:22;;;;;;;5.07;3.15;;;25.20;96.70;;;;;;5038628;28;20455;-80
2022/05/22 09:42:06;;;;;;;4.68;3.20;;;25.30;96.70;;;;;;5055164;28;20044;-80
2022/05/22 09:44:59;;;;;;;8.68;3.38;;;25.30;96.70;;;;;;5041300;28;20156;-80
2022/05/22 09:47:57;;;;;;;10.10;3.55;;;25.30;96.70;;;;;;5040962;28;20052;-80
2022/05/22 09:50:54;;;;;;;5.87;3.23;;;25.30;96.70;;;;;;5055734;28;20074;-78
2022/05/22 09:53:35;;;;;;;9.60;3.47;;;25.40;96.70;;;;;;5056069;28;21010;-81
2022/05/22 09:56:13;;;;;;;4.45;2.22;;;25.40;96.70;;;;;;5051473;28;20621;-81
2022/05/22 09:59:04;;;;;;;5.88;2.85;;;25.30;96.70;;;;;;5058508;28;20067;-80
2022/05/22 10:01:36;;;;;;;7.53;3.20;;;25.40;96.70;;;;;;5052863;28;20514;-77
2022/05/22 10:04:21;;;;;;;5.78;3.50;;;25.40;96.70;;;;;;5053526;28;20129;-76
2022/05/22 10:06:55;;;;;;;11.60;2.92;;;25.50;96.70;;;;;;5058020;28;20141;-76
2022/05/22 10:09:35;;;;;;;5.50;2.60;;;25.60;96.70;;;;;;5059280;28;20037;-76
2022/05/22 10:12:16;;;;;;;5.82;2.72;;;25.50;96.70;;;;;;5056786;28;20044;-76
2022/05/22 10:15:09;;;;;;;4.95;2.75;;;25.60;96.70;;;;;;5053559;28;20600;-77
2022/05/22 10:17:55;;;;;;;5.85;3.88;;;25.80;96.70;;;;;;5053079;28;20048;-77
2022/05/22 10:20:36;;;;;;;6.20;2.80;;;25.70;96.70;;;;;;5049282;28;20152;-74
2022/05/22 10:23:13;;;;;;;4.28;2.40;;;25.70;96.70;;;;;;5055967;28;20151;-75
2022/05/22 10:25:54;;;;;;;6.97;3.40;;;25.60;96.70;;;;;;5056606;28;20115;-75
2022/05/22 10:28:38;;;;;;;5.28;3.00;;;25.70;96.70;;;;;;5042701;28;20074;-75
2022/05/22 10:31:12;;;;;;;5.28;2.50;;;25.80;96.70;;;;;;5050366;28;20117;-75
2022/05/22 10:33:52;;;;;;;5.28;2.72;;;25.90;96.70;;;;;;5056142;28;20503;-75
2022/05/22 10:36:27;;;;;;;4.35;2.72;;;25.90;96.70;;;;;;5035975;28;20052;-75
2022/05/22 10:38:59;;;;;;;4.32;2.65;;;26.10;96.70;;;;;;5047626;28;20418;-76
2022/05/22 10:44:20;;;;;;;2.78;2.13;;;26.30;96.70;;;;;;5049477;28;20144;-75
2022/05/22 10:46:50;;;;;;;9.38;3.15;;;26.40;96.70;;;;;;5059359;28;20037;-75
2022/05/22 10:49:20;;;;;;;3.25;2.13;;;26.40;96.70;;;;;;5054059;28;20049;-75
2022/05/22 10:51:58;;;;;;;3.28;2.30;;;26.60;96.70;;;;;;5039386;28;20053;-76
2022/05/22 10:54:30;;;;;;;4.05;2.47;;;26.80;96.70;;;;;;5050426;28;20094;-75
2022/05/22 10:57:09;;;;;;;4.95;2.30;;;26.90;96.70;;;;;;5054850;28;20044;-75
2022/05/22 10:59:38;;;;;;;7.45;2.78;;;26.90;96.70;;;;;;5052544;28;20471;-75
2022/05/22 11:02:17;;;;;;;4.70;2.15;;;27.10;96.70;;;;;;5030810;28;20345;-76
2022/05/22 11:04:48;;;;;;;4.65;2.13;;;27.20;96.70;;;;;;5060212;28;20394;-76
2022/05/22 11:07:29;;;;;;;4.10;1.90;;;27.20;96.70;;;;;;5054677;28;20500;-73
2022/05/22 11:10:09;;;;;;;4.10;1.73;;;27.20;96.70;;;;;;5058235;28;20044;-74
2022/05/22 11:12:37;;;;;;;2.45;1.58;;;27.30;96.70;;;;;;5049146;28;20056;-77
2022/05/22 11:15:12;;;;;;;3.92;1.90;;;27.30;96.70;;;;;;5055621;28;20140;-76
2022/05/22 11:17:40;;;;;;;7.43;1.75;;;27.20;96.70;;;;;;5048637;28;20041;-76
2022/05/22 11:20:14;;;;;;;4.75;1.80;;;27.30;96.70;;;;;;5047344;28;20045;-74
2022/05/22 11:23:00;;;;;;;5.18;2.05;;;27.60;96.70;;;;;;5052226;28;20053;-74
2022/05/22 11:25:37;;;;;;;4.15;1.60;;;27.90;96.70;;;;;;5051606;28;20044;-74
2022/05/22 11:28:30;;;;;;;3.53;1.70;;;28.10;96.70;;;;;;5053945;28;20053;-75
2022/05/22 11:31:16;;;;;;;2.38;1.55;;;28.10;96.70;;;;;;5050618;28;20106;-74
2022/05/22 11:33:59;;;;;;;4.88;1.60;;;28.00;96.70;;;;;;5049908;28;20048;-74
2022/05/22 11:36:42;;;;;;;3.90;1.70;;;28.00;96.70;;;;;;5050505;28;20123;-74
2022/05/22 11:39:25;;;;;;;5.78;2.35;;;27.90;96.70;;;;;;5038856;28;20048;-74
2022/05/22 11:41:56;;;;;;;6.35;1.92;;;27.80;96.70;;;;;;5048964;28;20119;-74
2022/05/22 11:45:02;;;;;;;4.63;1.80;;;27.80;96.70;;;;;;5057522;28;20072;-74
2022/05/22 11:47:49;;;;;;;3.10;1.60;;;27.80;96.70;;;;;;5052237;28;20084;-74
2022/05/22 11:50:29;;;;;;;2.83;1.70;;;27.50;96.70;;;;;;5053905;28;20048;-74
2022/05/22 11:53:06;;;;;;;3.05;1.45;;;27.40;96.70;;;;;;5056006;28;20052;-74
2022/05/22 11:55:45;;;;;;;5.68;1.70;;;27.50;96.70;;;;;;5049493;28;20124;-74
2022/05/22 11:58:21;;;;;;;6.55;2.05;;;27.60;96.70;;;;;;5052269;28;20425;-75
2022/05/22 12:01:01;;;;;;;5.65;2.13;;;27.80;96.70;;;;;;5049416;28;20052;-73
2022/05/22 12:04:11;;;;;;;3.88;1.90;;;27.90;96.70;;;;;;5054545;28;20518;-74
2022/05/22 12:06:54;;;;;;;4.90;2.35;;;27.70;96.70;;;;;;5020591;28;20231;-74
2022/05/22 12:09:37;;;;;;;6.88;2.15;;;27.80;96.70;;;;;;5052673;28;20049;-74
2022/05/22 12:12:18;;;;;;;3.20;1.95;;;28.00;96.70;;;;;;5051948;28;20121;-74
2022/05/22 12:14:57;;;;;;;2.47;1.55;;;28.00;96.70;;;;;;5049621;28;20115;-73
2022/05/22 12:17:32;;;;;;;3.67;1.75;;;27.80;96.70;;;;;;5051103;28;20094;-74
2022/05/22 12:20:09;;;;;;;3.25;2.20;;;28.00;96.70;;;;;;5051736;28;20052;-74
2022/05/22 12:25:35;;;;;;;4.90;1.90;;;28.20;96.70;;;;;;5050977;28;20042;-74
2022/05/22 12:28:21;;;;;;;3.20;1.75;;;28.20;96.70;;;;;;5048418;28;20110;-74
2022/05/22 12:30:51;;;;;;;7.95;1.90;;;28.10;96.70;;;;;;5055462;28;20433;-75
2022/05/22 12:33:21;;;;;;;4.03;1.73;;;28.00;96.70;;;;;;5055474;28;20111;-74
2022/05/22 12:35:52;;;;;;;2.70;1.45;;;28.10;96.70;;;;;;5038332;28;20478;-74
2022/05/22 12:38:21;;;;;;;3.72;1.92;;;28.20;96.70;;;;;;5031221;28;20094;-74
2022/05/22 12:40:58;;;;;;;3.65;1.77;;;28.00;96.70;;;;;;5039846;28;20055;-74
2022/05/22 12:43:30;;;;;;;5.25;2.05;;;28.30;96.70;;;;;;5051292;28;20502;-74
2022/05/22 12:46:01;;;;;;;3.38;2.40;;;28.70;96.70;;;;;;5055995;28;20044;-75
2022/05/22 12:48:39;;;;;;;4.15;1.60;;;28.80;96.70;;;;;;5051101;28;20057;-75
2022/05/22 12:51:31;;;;;;;3.85;2.20;;;28.70;96.70;;;;;;5057393;28;20134;-74
2022/05/22 12:54:09;;;;;;;3.45;1.95;;;28.60;96.70;;;;;;5000588;28;20763;-75
2022/05/22 12:56:39;;;;;;;3.58;1.63;;;28.70;96.70;;;;;;5050540;28;20151;-75
2022/05/22 12:59:20;;;;;;;3.63;2.10;;;28.80;96.70;;;;;;5048245;28;20506;-74
2022/05/22 13:01:51;;;;;;;3.97;1.75;;;29.00;96.70;;;;;;5052498;28;20041;-74
2022/05/22 13:04:30;;;;;;;3.92;1.55;;;29.00;96.70;;;;;;5053374;28;20055;-75
2022/05/22 13:07:01;;;;;;;4.03;1.70;;;29.20;96.70;;;;;;5050300;28;20629;-74
2022/05/22 13:09:40;;;;;;;3.22;1.60;;;29.20;96.60;;;;;;5056728;28;20044;-75
2022/05/22 13:12:24;;;;;;;4.45;1.98;;;29.30;96.70;;;;;;5043149;28;20494;-74
2022/05/22 13:14:57;;;;;;;6.93;1.92;;;29.30;96.40;;;;;;5055565;28;20124;-75
2022/05/22 13:17:37;;;;;;;7.55;1.80;;;29.20;96.50;;;;;;5041558;28;20115;-75
2022/05/22 13:20:09;;;;;;;6.00;2.22;;;29.30;96.70;;;;;;5051523;28;20072;-74
2022/05/22 13:22:39;;;;;;;2.67;1.75;;;29.30;95.90;;;;;;5051719;28;20049;-73
2022/05/22 13:25:24;;;;;;;5.15;1.70;;;29.20;96.70;;;;;;5058734;28;20118;-74
2022/05/22 13:27:53;;;;;;;3.97;1.75;;;29.00;96.70;;;;;;5055199;28;20661;-75
2022/05/22 13:30:25;;;;;;;4.30;1.65;;;28.80;96.70;;;;;;5041253;28;20051;-75
2022/05/22 13:32:58;;;;;;;1.95;1.40;;;28.80;96.70;;;;;;5039872;28;20444;-74
2022/05/22 13:35:29;;;;;;;3.20;1.88;;;28.70;96.70;;;;;;5056094;28;20056;-74
2022/05/22 13:37:58;;;;;;;3.85;1.50;;;28.50;96.00;;;;;;5051920;28;20824;-74
2022/05/22 13:40:36;;;;;;;2.45;1.08;;;28.50;95.40;;;;;;5054304;28;20045;-75
2022/05/22 13:43:45;;;;;;;2.80;1.83;;;28.30;95.80;;;;;;5057164;28;20131;-75
2022/05/22 13:46:59;;;;;;;3.00;1.33;;;28.10;95.90;;;;;;5053344;28;20059;-75
2022/05/22 13:53:12;;;;;;;4.63;1.33;;;28.10;96.40;;;;;;5054767;28;20055;-74
2022/05/22 13:55:44;;;;;;;4.03;1.42;;;28.30;96.70;;;;;;5057634;28;20036;-74
2022/05/22 13:58:21;;;;;;;4.40;1.63;;;28.60;96.00;;;;;;5054429;28;20044;-74
2022/05/22 14:00:52;;;;;;;2.83;1.33;;;28.70;94.70;;;;;;5053445;28;20060;-74